sensor_id;sensor_type;location;lat;lon;timestamp;pressure;altitude;pressure_sealevel;temperature;humidity
62111;BME280;48102;47.526;19.072;2023-10-08T06:21:08;100355.59;;;20.27;53.51
62111;BME280;48102;47.526;19.072;2023-10-08T06:24:12;100355.59;;;20.27;53.51
62111;BME280;48102;47.526;19.072;2023-10-08T06:27:19;100363.91;;;19.74;54.06
62111;BME280;48102;47.526;19.072;2023-10-08T06:30:24;100357.00;;;19.71;55.32
62111;BME280;48102;47.526;19.072;2023-10-08T06:33:31;100363.34;;;19.70;55.78
62111;BME280;48102;47.526;19.072;2023-10-08T06:36:36;100373.63;;;19.75;55.18
62111;BME280;48102;47.526;19.072;2023-10-08T06:39:39;100369.88;;;19.87;54.90
62111;BME280;48102;47.526;19.072;2023-10-08T06:42:51;100372.44;;;19.98;54.30
62111;BME280;48102;47.526;19.072;2023-10-08T06:45:54;100374.00;;;20.01;53.82
62111;BME280;48102;47.526;19.072;2023-10-08T06:49:03;100372.44;;;19.98;55.03
62111;BME280;48102;47.526;19.072;2023-10-08T06:52:12;100364.22;;;19.90;55.51
62111;BME280;48102;47.526;19.072;2023-10-08T06:55:16;100377.56;;;19.80;55.45
62111;BME280;48102;47.526;19.072;2023-10-08T06:58:20;100369.78;;;19.68;56.29
62111;BME280;48102;47.526;19.072;2023-10-08T07:01:23;100364.00;;;19.63;55.78
62111;BME280;48102;47.526;19.072;2023-10-08T07:04:41;100363.19;;;19.51;56.77
62111;BME280;48102;47.526;19.072;2023-10-08T07:07:47;100355.50;;;19.58;55.85
62111;BME280;48102;47.526;19.072;2023-10-08T07:10:51;100356.41;;;19.68;55.38
62111;BME280;48102;47.526;19.072;2023-10-08T07:13:54;100368.53;;;19.72;57.29
62111;BME280;48102;47.526;19.072;2023-10-08T07:17:00;100353.22;;;19.74;56.50
62111;BME280;48102;47.526;19.072;2023-10-08T07:20:05;100349.59;;;19.85;57.04
62111;BME280;48102;47.526;19.072;2023-10-08T07:23:14;100353.81;;;19.87;56.61
62111;BME280;48102;47.526;19.072;2023-10-08T07:26:29;100354.41;;;19.91;56.07
62111;BME280;48102;47.526;19.072;2023-10-08T07:29:49;100347.94;;;20.03;56.21
62111;BME280;48102;47.526;19.072;2023-10-08T07:32:52;100354.34;;;20.21;55.46
62111;BME280;48102;47.526;19.072;2023-10-08T07:36:00;100363.06;;;20.33;55.51
62111;BME280;48102;47.526;19.072;2023-10-08T07:39:18;100362.94;;;20.35;55.18
62111;BME280;48102;47.526;19.072;2023-10-08T07:42:27;100347.34;;;20.49;56.02
62111;BME280;48102;47.526;19.072;2023-10-08T07:45:30;100342.56;;;20.53;56.52
62111;BME280;48102;47.526;19.072;2023-10-08T07:48:38;100355.94;;;20.63;55.54
62111;BME280;48102;47.526;19.072;2023-10-08T07:51:47;100357.94;;;20.70;56.60
62111;BME280;48102;47.526;19.072;2023-10-08T07:54:55;100350.88;;;20.79;55.95
62111;BME280;48102;47.526;19.072;2023-10-08T07:57:59;100345.91;;;20.94;57.10
62111;BME280;48102;47.526;19.072;2023-10-08T08:01:10;100346.34;;;21.09;56.63
62111;BME280;48102;47.526;19.072;2023-10-08T08:04:16;100335.16;;;21.23;56.61
62111;BME280;48102;47.526;19.072;2023-10-08T08:07:25;100349.09;;;21.26;55.68
62111;BME280;48102;47.526;19.072;2023-10-08T08:10:29;100344.31;;;21.40;56.77
62111;BME280;48102;47.526;19.072;2023-10-08T08:13:33;100350.84;;;21.65;55.55
62111;BME280;48102;47.526;19.072;2023-10-08T08:16:37;100340.56;;;21.88;54.43
62111;BME280;48102;47.526;19.072;2023-10-08T08:19:41;100360.16;;;21.98;54.68
62111;BME280;48102;47.526;19.072;2023-10-08T08:22:46;100353.47;;;21.74;55.36
62111;BME280;48102;47.526;19.072;2023-10-08T08:25:52;100360.84;;;21.72;55.94
62111;BME280;48102;47.526;19.072;2023-10-08T08:29:10;100362.87;;;21.88;55.31
62111;BME280;48102;47.526;19.072;2023-10-08T08:32:18;100370.34;;;21.94;55.79
62111;BME280;48102;47.526;19.072;2023-10-08T08:35:24;100381.22;;;21.93;54.86
62111;BME280;48102;47.526;19.072;2023-10-08T08:38:28;100372.25;;;22.02;55.20
62111;BME280;48102;47.526;19.072;2023-10-08T08:41:38;100375.91;;;22.11;54.74
62111;BME280;48102;47.526;19.072;2023-10-08T08:44:43;100357.41;;;22.35;53.74
62111;BME280;48102;47.526;19.072;2023-10-08T08:47:49;100370.94;;;22.61;53.97
62111;BME280;48102;47.526;19.072;2023-10-08T08:50:52;100384.75;;;22.84;53.71
62111;BME280;48102;47.526;19.072;2023-10-08T08:53:56;100383.47;;;23.32;52.16
62111;BME280;48102;47.526;19.072;2023-10-08T08:57:03;100399.50;;;23.94;50.49
62111;BME280;48102;47.526;19.072;2023-10-08T09:00:08;100408.38;;;24.28;50.15
62111;BME280;48102;47.526;19.072;2023-10-08T09:03:14;100417.03;;;24.40;50.50
62111;BME280;48102;47.526;19.072;2023-10-08T09:06:18;100407.22;;;24.31;49.34
62111;BME280;48102;47.526;19.072;2023-10-08T09:09:21;100419.38;;;24.43;50.03
62111;BME280;48102;47.526;19.072;2023-10-08T09:12:28;100413.06;;;24.85;48.53
62111;BME280;48102;47.526;19.072;2023-10-08T09:15:31;100416.25;;;24.72;48.91
62111;BME280;48102;47.526;19.072;2023-10-08T09:18:37;100425.25;;;24.39;49.26
62111;BME280;48102;47.526;19.072;2023-10-08T09:21:39;100430.25;;;23.91;50.97
62111;BME280;48102;47.526;19.072;2023-10-08T09:24:42;100438.72;;;23.52;52.11
62111;BME280;48102;47.526;19.072;2023-10-08T09:27:50;100444.41;;;23.06;54.14
62111;BME280;48102;47.526;19.072;2023-10-08T09:30:58;100453.63;;;22.85;55.04
62111;BME280;48102;47.526;19.072;2023-10-08T09:34:03;100457.06;;;22.77;56.10
62111;BME280;48102;47.526;19.072;2023-10-08T09:37:06;100457.78;;;22.52;56.13
62111;BME280;48102;47.526;19.072;2023-10-08T09:40:11;100471.22;;;22.24;57.58
62111;BME280;48102;47.526;19.072;2023-10-08T09:43:15;100466.63;;;21.97;58.91
62111;BME280;48102;47.526;19.072;2023-10-08T09:46:19;100477.69;;;21.94;60.24
62111;BME280;48102;47.526;19.072;2023-10-08T09:49:38;100479.06;;;21.98;60.76
62111;BME280;48102;47.526;19.072;2023-10-08T09:52:55;100485.97;;;22.11;60.39
62111;BME280;48102;47.526;19.072;2023-10-08T09:55:59;100502.19;;;22.19;59.88
62111;BME280;48102;47.526;19.072;2023-10-08T09:59:07;100510.84;;;22.40;59.99
62111;BME280;48102;47.526;19.072;2023-10-08T10:02:14;100513.28;;;22.61;59.55
62111;BME280;48102;47.526;19.072;2023-10-08T10:05:20;100524.09;;;22.51;58.62
62111;BME280;48102;47.526;19.072;2023-10-08T10:08:24;100529.63;;;22.13;60.30
62111;BME280;48102;47.526;19.072;2023-10-08T10:11:29;100544.63;;;21.86;61.86
62111;BME280;48102;47.526;19.072;2023-10-08T10:14:41;100556.94;;;21.69;62.74
62111;BME280;48102;47.526;19.072;2023-10-08T10:17:46;100557.22;;;21.57;63.58
62111;BME280;48102;47.526;19.072;2023-10-08T10:20:57;100539.88;;;21.51;64.23
62111;BME280;48102;47.526;19.072;2023-10-08T10:24:04;100538.41;;;21.27;65.81
62111;BME280;48102;47.526;19.072;2023-10-08T10:27:24;100543.78;;;21.27;65.78
62111;BME280;48102;47.526;19.072;2023-10-08T10:30:27;100548.34;;;21.46;66.66
62111;BME280;48102;47.526;19.072;2023-10-08T10:33:31;100571.22;;;21.50;67.60
62111;BME280;48102;47.526;19.072;2023-10-08T10:36:37;100558.78;;;21.59;66.23
62111;BME280;48102;47.526;19.072;2023-10-08T10:39:40;100543.75;;;21.95;66.27
62111;BME280;48102;47.526;19.072;2023-10-08T10:42:47;100542.00;;;22.33;60.55
62111;BME280;48102;47.526;19.072;2023-10-08T10:45:56;100566.78;;;22.54;58.04
62111;BME280;48102;47.526;19.072;2023-10-08T10:49:00;100566.75;;;22.82;55.76
62111;BME280;48102;47.526;19.072;2023-10-08T10:52:27;100567.38;;;22.76;54.95
62111;BME280;48102;47.526;19.072;2023-10-08T10:55:49;100572.66;;;22.95;54.96
62111;BME280;48102;47.526;19.072;2023-10-08T10:59:06;100578.28;;;23.02;54.10
62111;BME280;48102;47.526;19.072;2023-10-08T11:02:21;100601.53;;;22.93;52.60
62111;BME280;48102;47.526;19.072;2023-10-08T11:05:33;100594.09;;;22.77;53.13
62111;BME280;48102;47.526;19.072;2023-10-08T11:08:41;100585.91;;;22.69;53.30
62111;BME280;48102;47.526;19.072;2023-10-08T11:11:49;100594.72;;;22.62;52.24
62111;BME280;48102;47.526;19.072;2023-10-08T11:14:58;100604.28;;;22.74;51.86
62111;BME280;48102;47.526;19.072;2023-10-08T11:18:01;100608.19;;;22.52;52.76
62111;BME280;48102;47.526;19.072;2023-10-08T11:21:10;100617.91;;;22.63;51.96
62111;BME280;48102;47.526;19.072;2023-10-08T11:24:30;100600.19;;;22.42;51.77
62111;BME280;48102;47.526;19.072;2023-10-08T11:27:36;100603.03;;;22.31;51.61
62111;BME280;48102;47.526;19.072;2023-10-08T11:30:41;100619.16;;;22.12;51.00
62111;BME280;48102;47.526;19.072;2023-10-08T11:33:46;100624.41;;;21.94;51.30
62111;BME280;48102;47.526;19.072;2023-10-08T11:36:58;100623.13;;;21.78;50.88
62111;BME280;48102;47.526;19.072;2023-10-08T11:40:02;100628.91;;;21.45;49.79
62111;BME280;48102;47.526;19.072;2023-10-08T11:43:15;100622.97;;;20.82;51.24
62111;BME280;48102;47.526;19.072;2023-10-08T11:46:27;100624.13;;;20.37;52.60
62111;BME280;48102;47.526;19.072;2023-10-08T11:49:31;100639.03;;;20.30;53.00
62111;BME280;48102;47.526;19.072;2023-10-08T11:52:39;100643.78;;;20.05;54.44
62111;BME280;48102;47.526;19.072;2023-10-08T11:55:45;100636.94;;;19.92;55.09
62111;BME280;48102;47.526;19.072;2023-10-08T11:58:51;100659.97;;;19.72;55.79
62111;BME280;48102;47.526;19.072;2023-10-08T12:01:55;100662.09;;;19.46;56.02
62111;BME280;48102;47.526;19.072;2023-10-08T12:04:59;100665.91;;;19.43;57.34
62111;BME280;48102;47.526;19.072;2023-10-08T12:08:02;100671.75;;;19.03;57.14
62111;BME280;48102;47.526;19.072;2023-10-08T12:11:07;100691.19;;;18.94;57.90
62111;BME280;48102;47.526;19.072;2023-10-08T12:14:14;100694.37;;;18.88;59.53
62111;BME280;48102;47.526;19.072;2023-10-08T12:17:18;100700.66;;;18.76;58.07
